Time;durP1;ratioP1;P1;durP2;ratioP2;P2;SDS_P1;SDS_P2;PMS_P1;PMS_P2;Temp;Humidity;BMP_temperature;BMP_pressure;BME280_temperature;BME280_humidity;BME280_pressure;Samples;Min_cycle;Max_cycle;Signal;HPM_P1;HPM_P2
2023/03/16 07:11:13;;;;;;;9.20;5.95;;;;;;;2.29;80.04;96782.09;2083783;28;20670;-59
2023/03/16 07:12:15;;;;;;;9.18;5.38;;;;;;;2.68;79.13;96781.72;2082565;28;20196;-59
2023/03/16 07:13:17;;;;;;;10.93;5.75;;;;;;;2.71;78.78;96778.25;2082400;28;20215;-61
2023/03/16 07:14:18;;;;;;;12.50;5.82;;;;;;;2.80;78.03;96792.78;2082924;28;20224;-62
2023/03/16 07:15:20;;;;;;;11.63;5.25;;;;;;;2.84;77.35;96779.81;2098984;28;20257;-61
2023/03/16 07:16:22;;;;;;;8.90;5.00;;;;;;;2.77;77.27;96784.19;2099009;28;20270;-59
2023/03/16 07:17:23;;;;;;;14.30;5.40;;;;;;;2.66;77.78;96782.59;2083163;28;20192;-59
2023/03/16 07:18:25;;;;;;;8.57;6.15;;;;;;;2.63;78.12;96788.66;2082328;28;20675;-60
2023/03/16 07:19:27;;;;;;;12.98;5.40;;;;;;;2.86;77.85;96788.38;2079011;28;20223;-59
2023/03/16 07:20:31;;;;;;;10.75;5.50;;;;;;;3.05;77.35;96788.19;2081611;28;20208;-60
2023/03/16 07:21:38;;;;;;;9.93;4.93;;;;;;;3.15;76.34;96784.59;2076764;28;20206;-60
2023/03/16 07:22:40;;;;;;;9.68;6.00;;;;;;;3.69;75.16;96775.22;2080779;28;20208;-59
2023/03/16 07:23:42;;;;;;;9.55;5.35;;;;;;;3.38;74.96;96784.28;2081482;28;20212;-62
2023/03/16 07:24:44;;;;;;;8.75;5.63;;;;;;;2.88;76.40;96785.78;2082194;28;20232;-60
2023/03/16 07:25:45;;;;;;;7.03;5.15;;;;;;;3.18;76.40;96794.88;2082380;28;20193;-60
2023/03/16 07:26:46;;;;;;;9.55;5.10;;;;;;;3.36;75.14;96798.94;2078726;28;20205;-60
2023/03/16 07:27:48;;;;;;;7.82;5.32;;;;;;;3.41;75.48;96789.38;2079288;28;20201;-59
2023/03/16 07:28:49;;;;;;;8.15;5.13;;;;;;;3.35;75.99;96794.66;2081866;28;20248;-60
2023/03/16 07:29:51;;;;;;;13.25;6.20;;;;;;;3.63;75.60;96788.25;2081829;28;20204;-60
2023/03/16 07:30:52;;;;;;;16.45;5.30;;;;;;;3.79;75.06;96784.53;2081695;28;20707;-60
2023/03/16 07:32:04;;;;;;;5.55;4.03;;;;;;;4.02;73.83;96791.91;2080475;28;20204;-60
2023/03/16 07:33:06;;;;;;;10.93;5.35;;;;;;;4.28;72.93;96793.25;2082999;28;20193;-60
2023/03/16 07:34:07;;;;;;;8.02;5.03;;;;;;;4.21;72.83;96789.88;2080383;28;20281;-60
2023/03/16 07:35:10;;;;;;;10.88;5.95;;;;;;;4.83;71.73;96790.50;2081242;28;20227;-60
2023/03/16 07:36:12;;;;;;;6.68;4.82;;;;;;;5.49;68.98;96790.88;2081948;28;20204;-60
2023/03/16 07:37:14;;;;;;;11.70;5.65;;;;;;;5.33;69.92;96798.13;2078826;28;20216;-60
2023/03/16 07:38:17;;;;;;;7.53;5.43;;;;;;;5.32;69.01;96799.88;2082466;28;20288;-60
2023/03/16 07:39:19;;;;;;;8.45;4.95;;;;;;;4.81;70.11;96794.84;2079556;28;20217;-60
2023/03/16 07:40:20;;;;;;;8.35;5.00;;;;;;;4.82;71.12;96789.66;2081202;28;20205;-60
2023/03/16 07:41:22;;;;;;;8.55;4.93;;;;;;;5.10;70.75;96791.69;2082795;28;20200;-60
2023/03/16 07:42:23;;;;;;;6.10;4.90;;;;;;;5.89;68.68;96796.00;2082803;28;20796;-60
2023/03/16 07:43:24;;;;;;;11.25;4.03;;;;;;;5.48;68.45;96794.34;2082511;28;20197;-60
2023/03/16 07:44:26;;;;;;;7.85;5.18;;;;;;;5.57;68.90;96786.38;2077871;28;20228;-60
2023/03/16 07:45:28;;;;;;;7.63;4.25;;;;;;;5.48;68.02;96784.00;2080430;28;20735;-60
2023/03/16 07:46:31;;;;;;;8.40;5.00;;;;;;;5.84;68.30;96797.84;2081382;28;20414;-60
2023/03/16 07:47:33;;;;;;;8.30;4.78;;;;;;;5.53;68.04;96790.75;2081055;28;20205;-60
2023/03/16 07:48:34;;;;;;;10.82;5.45;;;;;;;6.16;67.39;96787.63;2080053;28;20197;-60
2023/03/16 07:49:35;;;;;;;8.95;5.20;;;;;;;5.97;67.46;96794.97;2081998;28;20250;-61
2023/03/16 07:50:37;;;;;;;7.65;5.15;;;;;;;6.25;65.94;96784.81;2081947;28;20205;-60
2023/03/16 07:51:39;;;;;;;7.82;4.72;;;;;;;6.59;65.94;96788.25;2078442;28;20289;-60
2023/03/16 07:52:41;;;;;;;7.10;4.22;;;;;;;7.15;65.13;96788.44;2078915;28;20284;-60
2023/03/16 07:53:43;;;;;;;7.78;4.88;;;;;;;7.09;64.64;96795.56;2082228;28;20237;-60
2023/03/16 07:54:44;;;;;;;11.00;4.75;;;;;;;6.36;65.45;96797.47;2082437;28;20734;-60
2023/03/16 07:55:46;;;;;;;6.93;4.45;;;;;;;6.35;65.76;96793.22;2082010;28;20212;-61
2023/03/16 07:56:47;;;;;;;7.60;4.10;;;;;;;5.84;66.95;96792.66;2080818;28;20332;-60
2023/03/16 07:57:50;;;;;;;8.27;4.90;;;;;;;6.90;65.40;96784.84;2080043;28;20713;-60
2023/03/16 07:58:51;;;;;;;6.97;4.90;;;;;;;6.92;64.38;96794.28;2081832;28;20769;-60
2023/03/16 07:59:53;;;;;;;12.65;5.50;;;;;;;6.66;65.89;96787.22;2084062;28;20200;-60
2023/03/16 08:00:58;;;;;;;10.38;5.63;;;;;;;6.44;65.14;96789.53;2083435;28;20235;-60
2023/03/16 08:02:01;;;;;;;11.00;5.18;;;;;;;6.45;65.80;96780.84;2081189;28;20205;-60
2023/03/16 08:03:02;;;;;;;6.25;4.57;;;;;;;7.39;63.80;96796.44;2081271;28;20694;-60
2023/03/16 08:04:04;;;;;;;8.38;4.28;;;;;;;6.64;62.66;96787.25;2081158;28;20335;-60
2023/03/16 08:05:08;;;;;;;7.70;4.45;;;;;;;6.16;65.56;96790.22;2082242;28;20251;-60
2023/03/16 08:06:11;;;;;;;10.82;5.28;;;;;;;6.38;65.37;96795.72;2081829;28;20288;-60
2023/03/16 08:07:13;;;;;;;7.80;4.90;;;;;;;6.42;65.58;96793.91;2099199;28;20204;-60
2023/03/16 08:08:15;;;;;;;7.88;4.30;;;;;;;6.29;64.70;96796.78;2093637;28;20639;-59
2023/03/16 08:09:17;;;;;;;9.95;4.55;;;;;;;6.74;64.80;96798.22;2080728;28;20812;-60
2023/03/16 08:10:18;;;;;;;6.32;4.20;;;;;;;7.40;63.12;96800.69;2081069;28;20834;-60
2023/03/16 08:11:22;;;;;;;6.45;4.10;;;;;;;6.16;63.51;96800.59;2081940;28;20212;-60
2023/03/16 08:12:24;;;;;;;11.85;5.05;;;;;;;6.38;64.36;96803.50;2078160;28;20557;-60
2023/03/16 08:13:26;;;;;;;8.13;4.85;;;;;;;6.72;64.21;96804.34;2079142;28;20200;-60
2023/03/16 08:14:27;;;;;;;6.47;4.50;;;;;;;6.92;64.59;96796.88;2078378;28;20254;-60
2023/03/16 08:15:32;;;;;;;10.32;4.60;;;;;;;6.85;63.43;96796.19;2078804;28;20232;-60
2023/03/16 08:16:34;;;;;;;9.45;4.22;;;;;;;6.38;64.35;96809.53;2094111;28;20577;-60
2023/03/16 08:17:36;;;;;;;8.20;4.30;;;;;;;5.59;65.17;96792.38;2094036;28;20256;-60
2023/03/16 08:18:38;;;;;;;9.43;4.25;;;;;;;6.13;65.34;96801.53;2079249;28;20250;-59
2023/03/16 08:19:39;;;;;;;8.82;4.78;;;;;;;5.84;65.84;96791.78;2082942;28;20197;-60
2023/03/16 08:20:41;;;;;;;10.60;4.35;;;;;;;5.72;67.42;96792.94;2080085;28;20716;-60
2023/03/16 08:21:42;;;;;;;8.32;5.00;;;;;;;5.96;66.23;96791.50;2081519;28;20714;-60
2023/03/16 08:23:00;;;;;;;8.50;4.00;;;;;;;5.99;66.45;96794.09;2076171;28;20559;-59
2023/03/16 08:24:02;;;;;;;6.28;4.22;;;;;;;6.98;65.28;96788.94;2074352;28;20681;-60
2023/03/16 08:25:06;;;;;;;7.47;4.13;;;;;;;7.18;62.63;96772.75;2076621;28;20216;-60
2023/03/16 08:26:07;;;;;;;11.25;4.18;;;;;;;7.73;60.99;96779.78;2075769;28;20733;-60
2023/03/16 08:27:09;;;;;;;9.93;4.47;;;;;;;7.06;62.95;96769.66;2076170;28;20206;-60
2023/03/16 08:28:11;;;;;;;7.35;4.75;;;;;;;6.84;64.57;96775.47;2076423;28;20204;-60
2023/03/16 08:29:13;;;;;;;11.13;4.38;;;;;;;6.90;64.78;96774.47;2074838;28;20315;-60
2023/03/16 08:30:15;;;;;;;8.50;3.85;;;;;;;7.28;64.33;96785.50;2075331;28;20746;-60
2023/03/16 08:31:18;;;;;;;10.88;4.38;;;;;;;7.11;61.95;96772.97;2076837;28;20669;-60
2023/03/16 08:32:20;;;;;;;7.00;4.22;;;;;;;6.29;63.90;96773.44;2076167;28;20200;-59
2023/03/16 08:33:21;;;;;;;8.40;5.03;;;;;;;6.00;64.59;96772.44;2076261;28;20198;-60
2023/03/16 08:34:24;;;;;;;9.73;4.05;;;;;;;6.01;65.78;96771.53;2075541;28;20833;-59
2023/03/16 08:35:27;;;;;;;6.80;4.82;;;;;;;6.50;64.63;96772.06;2075751;28;20632;-60
2023/03/16 08:36:30;;;;;;;6.40;4.18;;;;;;;6.60;63.87;96764.00;2075789;28;20203;-59
2023/03/16 08:37:31;;;;;;;8.32;4.45;;;;;;;6.79;64.79;96765.22;2076338;28;20202;-60
2023/03/16 08:38:33;;;;;;;9.00;4.80;;;;;;;6.90;64.14;96772.69;2074678;28;20808;-60
2023/03/16 08:39:34;;;;;;;11.75;4.82;;;;;;;6.27;63.87;96766.59;2075991;28;20197;-60
2023/03/16 08:40:36;;;;;;;7.75;4.40;;;;;;;6.61;64.66;96761.38;2077166;28;20197;-59
2023/03/16 08:41:39;;;;;;;8.00;4.88;;;;;;;6.94;63.87;96760.50;2077871;28;20314;-60
2023/03/16 08:42:41;;;;;;;8.68;4.43;;;;;;;7.36;63.19;96760.13;2076469;28;20210;-59
2023/03/16 08:43:43;;;;;;;6.82;4.30;;;;;;;7.68;61.93;96764.34;2075393;28;20324;-59
2023/03/16 08:44:46;;;;;;;8.82;4.40;;;;;;;6.77;64.02;96753.19;2075888;28;20319;-59
2023/03/16 08:45:48;;;;;;;10.20;5.50;;;;;;;7.34;63.19;96751.56;2076169;28;20243;-60
2023/03/16 08:46:50;;;;;;;7.40;4.10;;;;;;;7.12;63.44;96753.91;2074975;28;20244;-60
2023/03/16 08:47:52;;;;;;;8.60;4.90;;;;;;;7.00;62.76;96760.31;2076083;28;20665;-59
2023/03/16 08:48:56;;;;;;;14.00;4.95;;;;;;;6.93;63.90;96763.97;2073332;28;20224;-60
2023/03/16 08:49:59;;;;;;;7.97;4.95;;;;;;;8.05;61.80;96756.25;2076424;28;20197;-59
2023/03/16 08:51:02;;;;;;;13.82;4.10;;;;;;;7.77;61.61;96764.94;2072991;28;20231;-60
2023/03/16 08:52:04;;;;;;;7.55;4.45;;;;;;;7.90;60.80;96763.66;2074321;28;20220;-59
2023/03/16 08:53:06;;;;;;;7.60;3.80;;;;;;;7.30;61.59;96761.19;2076897;28;20197;-59
2023/03/16 08:54:08;;;;;;;7.63;4.47;;;;;;;6.42;64.49;96762.75;2077157;28;20225;-59
2023/03/16 08:55:10;;;;;;;5.72;4.43;;;;;;;6.77;64.84;96761.81;2076698;28;20299;-59
2023/03/16 08:56:13;;;;;;;7.30;4.40;;;;;;;6.75;63.63;96758.41;2074620;28;20200;-60
2023/03/16 08:57:15;;;;;;;10.75;4.95;;;;;;;6.78;63.81;96763.53;2074855;28;20277;-59
2023/03/16 08:58:16;;;;;;;7.97;4.45;;;;;;;6.64;63.70;96744.88;2075937;28;20660;-59
2023/03/16 08:59:18;;;;;;;8.52;4.45;;;;;;;7.20;62.78;96772.75;2075691;28;20225;-59
2023/03/16 09:00:30;;;;;;;6.90;4.68;;;;;;;6.78;62.80;96768.72;2075884;28;20264;-59
2023/03/16 09:01:32;;;;;;;8.25;4.72;;;;;;;7.27;62.91;96768.19;2075410;28;21151;-59
2023/03/16 09:02:37;;;;;;;6.40;3.85;;;;;;;7.34;62.55;96762.78;2075893;28;20556;-60
2023/03/16 09:03:44;;;;;;;11.60;5.20;;;;;;;6.85;62.23;96762.44;2072111;28;20198;-60
2023/03/16 09:04:46;;;;;;;6.55;3.95;;;;;;;7.09;62.18;96757.44;2076113;28;20204;-60
2023/03/16 09:05:48;;;;;;;9.75;4.32;;;;;;;7.23;60.53;96746.66;2076457;28;20198;-59
2023/03/16 09:06:50;;;;;;;10.77;5.30;;;;;;;6.68;64.09;96729.19;2093378;28;20219;-59
2023/03/16 09:08:08;;;;;;;7.03;4.43;;;;;;;6.80;62.98;96753.94;2087924;28;20239;-60
2023/03/16 09:09:10;;;;;;;9.38;4.78;;;;;;;6.82;63.67;96753.91;2076611;28;20868;-59
2023/03/16 09:10:14;;;;;;;9.15;4.57;;;;;;;7.77;62.33;96751.94;2072836;28;20205;-59
2023/03/16 09:11:17;;;;;;;6.30;4.07;;;;;;;7.51;61.95;96761.41;2076481;28;20810;-59
2023/03/16 09:12:21;;;;;;;6.88;3.63;;;;;;;6.52;63.64;96748.66;2074675;28;20209;-60
2023/03/16 09:13:23;;;;;;;9.45;4.28;;;;;;;6.68;63.25;96739.56;2073056;28;20228;-60
2023/03/16 09:14:24;;;;;;;7.35;4.15;;;;;;;7.48;62.61;96751.97;2073961;28;20225;-59
2023/03/16 09:15:26;;;;;;;6.13;4.30;;;;;;;8.02;60.84;96744.22;2076646;28;20216;-59
2023/03/16 09:16:29;;;;;;;6.55;3.88;;;;;;;7.88;59.28;96744.66;2072565;28;20926;-60
2023/03/16 09:17:32;;;;;;;8.40;4.13;;;;;;;7.73;59.70;96755.56;2073765;28;20557;-60
2023/03/16 09:18:35;;;;;;;8.50;4.78;;;;;;;7.70;60.14;96773.84;2074825;28;20202;-59
2023/03/16 09:19:36;;;;;;;10.50;4.50;;;;;;;7.45;59.67;96761.59;2075370;28;20201;-59
2023/03/16 09:21:03;;;;;;;8.63;4.07;;;;;;;7.92;58.95;96776.63;2076636;28;20229;-59
2023/03/16 09:22:05;;;;;;;10.30;4.03;;;;;;;7.79;59.62;96768.34;2075681;28;20201;-60
2023/03/16 09:23:07;;;;;;;7.60;4.18;;;;;;;8.64;58.61;96766.41;2076264;28;20233;-59
2023/03/16 09:24:09;;;;;;;5.68;3.97;;;;;;;8.76;58.78;96765.16;2072062;28;20241;-60
2023/03/16 09:25:10;;;;;;;7.95;4.15;;;;;;;8.00;57.95;96762.47;2076000;28;20233;-59
2023/03/16 09:26:12;;;;;;;8.07;4.63;;;;;;;8.30;58.50;96759.75;2075117;28;20201;-60
2023/03/16 09:27:14;;;;;;;7.50;4.15;;;;;;;7.80;58.24;96757.06;2075081;28;20206;-60
2023/03/16 09:28:16;;;;;;;5.03;3.60;;;;;;;8.56;57.74;96752.84;2075579;28;20210;-60
2023/03/16 09:29:20;;;;;;;9.90;3.60;;;;;;;8.24;57.98;96762.56;2076965;28;20221;-60
2023/03/16 09:30:22;;;;;;;7.32;3.20;;;;;;;8.59;57.35;96757.94;2075435;28;20191;-60
2023/03/16 09:31:23;;;;;;;6.38;4.10;;;;;;;8.03;57.08;96747.69;2076058;28;20657;-60
2023/03/16 09:32:27;;;;;;;6.53;3.58;;;;;;;7.10;59.86;96756.56;2072360;28;20705;-60
2023/03/16 09:33:30;;;;;;;6.75;3.47;;;;;;;7.51;59.18;96751.03;2073184;28;20198;-60
2023/03/16 09:34:32;;;;;;;5.88;3.80;;;;;;;6.53;60.90;96748.59;2076098;28;20202;-59
2023/03/16 09:35:33;;;;;;;5.85;3.50;;;;;;;7.32;61.24;96745.53;2075269;28;20197;-60
2023/03/16 09:36:36;;;;;;;5.80;3.83;;;;;;;7.07;60.45;96737.63;2076515;28;20194;-60
2023/03/16 09:37:38;;;;;;;6.85;3.80;;;;;;;7.21;60.95;96721.63;2075440;28;20657;-59
2023/03/16 09:38:55;;;;;;;9.98;4.40;;;;;;;6.51;61.99;96741.75;2075221;28;20727;-60
2023/03/16 09:39:57;;;;;;;6.88;3.55;;;;;;;6.15;63.11;96747.88;2076772;28;20676;-59
2023/03/16 09:41:28;;;;;;;7.28;4.05;;;;;;;6.32;62.61;96731.03;2076695;28;20201;-60
2023/03/16 09:42:37;;;;;;;8.02;4.15;;;;;;;6.47;63.33;96746.16;2072601;28;20205;-60
2023/03/16 09:43:59;;;;;;;5.75;3.75;;;;;;;6.41;64.10;96742.91;2074238;28;20201;-60
2023/03/16 09:45:30;;;;;;;7.75;4.15;;;;;;;7.05;61.57;96742.88;2074873;28;20293;-60
2023/03/16 09:46:45;;;;;;;5.90;3.65;;;;;;;7.23;61.18;96740.63;2075252;28;20263;-60
2023/03/16 09:47:49;;;;;;;4.47;3.10;;;;;;;7.25;60.92;96747.47;2074385;28;20194;-59
2023/03/16 09:48:52;;;;;;;7.25;4.78;;;;;;;7.33;61.99;96740.28;2075528;28;20226;-60
2023/03/16 09:50:01;;;;;;;11.07;3.47;;;;;;;8.07;59.37;96733.66;2076470;28;20210;-59
2023/03/16 09:51:06;;;;;;;5.05;3.15;;;;;;;8.06;59.37;96738.00;2076350;28;20229;-60
2023/03/16 09:52:19;;;;;;;5.30;3.55;;;;;;;8.41;58.14;96735.97;2076022;28;20213;-60
2023/03/16 09:53:28;;;;;;;6.50;3.40;;;;;;;8.32;58.54;96738.91;2076218;28;20203;-60
2023/03/16 09:54:48;;;;;;;8.48;2.92;;;;;;;8.61;58.32;96750.09;2075856;28;20591;-60
2023/03/16 09:56:02;;;;;;;5.03;3.25;;;;;;;8.52;57.92;96740.84;2074510;28;20203;-59
2023/03/16 09:57:15;;;;;;;7.97;3.88;;;;;;;8.88;57.69;96732.59;2076165;28;20280;-60
2023/03/16 09:58:20;;;;;;;6.10;2.97;;;;;;;9.70;56.10;96731.25;2075446;28;20583;-60
2023/03/16 09:59:22;;;;;;;6.30;3.85;;;;;;;10.21;55.08;96730.06;2074302;28;20260;-60
2023/03/16 10:00:54;;;;;;;5.03;3.45;;;;;;;9.26;54.61;96740.75;2072486;28;20197;-59
2023/03/16 10:02:04;;;;;;;4.75;3.00;;;;;;;9.23;54.11;96730.47;2075384;28;20208;-59
2023/03/16 10:03:24;;;;;;;5.30;3.40;;;;;;;8.31;56.48;96732.81;2075140;28;20204;-59
2023/03/16 10:04:36;;;;;;;5.40;3.17;;;;;;;8.77;56.84;96732.16;2074561;28;20814;-60
2023/03/16 10:05:38;;;;;;;7.68;3.58;;;;;;;9.02;56.26;96728.66;2075216;28;20198;-59
2023/03/16 10:06:51;;;;;;;7.65;3.40;;;;;;;8.66;56.15;96728.19;2076448;28;20197;-60
2023/03/16 10:08:07;;;;;;;6.07;3.15;;;;;;;9.67;55.43;96741.81;2074217;28;20201;-60
2023/03/16 10:09:38;;;;;;;6.03;3.30;;;;;;;9.45;54.67;96732.25;2073140;28;20274;-60
2023/03/16 10:11:22;;;;;;;5.95;3.45;;;;;;;10.32;53.24;96723.53;2074779;28;20257;-60
2023/03/16 10:12:36;;;;;;;5.97;2.70;;;;;;;11.06;51.12;96729.03;2067625;28;20244;-60
2023/03/16 10:13:43;;;;;;;6.28;2.88;;;;;;;11.16;50.06;96726.84;2075438;28;20212;-59
2023/03/16 10:15:08;;;;;;;4.30;2.60;;;;;;;11.41;50.33;96742.25;2075657;28;20799;-60
2023/03/16 10:16:24;;;;;;;3.88;2.60;;;;;;;11.16;49.05;96726.84;2074846;28;20201;-60
2023/03/16 10:17:35;;;;;;;7.00;2.65;;;;;;;11.95;48.42;96717.91;2075018;28;20201;-60
2023/03/16 10:18:49;;;;;;;4.18;2.70;;;;;;;10.60;49.42;96733.66;2074113;28;20198;-59
2023/03/16 10:19:58;;;;;;;4.18;2.47;;;;;;;10.02;51.91;96731.72;2076219;28;20201;-60
2023/03/16 10:21:01;;;;;;;5.05;2.42;;;;;;;10.54;51.37;96726.97;2075914;28;20834;-60
2023/03/16 10:22:16;;;;;;;4.03;2.20;;;;;;;10.60;50.77;96720.59;2076824;28;20232;-60
2023/03/16 10:23:22;;;;;;;5.45;2.72;;;;;;;10.50;52.37;96728.00;2076815;28;20189;-60
2023/03/16 10:24:42;;;;;;;7.30;3.55;;;;;;;10.99;49.83;96724.16;2074061;28;20221;-60
2023/03/16 10:25:49;;;;;;;6.68;2.67;;;;;;;10.28;51.55;96728.03;2074445;28;20201;-59
2023/03/16 10:26:59;;;;;;;5.35;2.30;;;;;;;10.65;50.63;96715.19;2075681;28;20316;-60
2023/03/16 10:28:00;;;;;;;5.85;2.70;;;;;;;11.10;49.55;96716.69;2072465;28;20200;-60
2023/03/16 10:29:03;;;;;;;4.13;2.58;;;;;;;12.19;48.64;96707.16;2071880;28;20225;-60
2023/03/16 10:30:18;;;;;;;6.00;3.13;;;;;;;11.40;48.81;96708.31;2075907;28;20197;-60
2023/03/16 10:31:22;;;;;;;4.28;2.25;;;;;;;11.14;49.52;96706.94;2075195;28;20203;-60
2023/03/16 10:32:27;;;;;;;6.88;2.60;;;;;;;11.65;48.24;96681.00;2075114;28;20214;-60
2023/03/16 10:33:35;;;;;;;4.30;2.55;;;;;;;11.88;47.81;96696.44;2076544;28;20198;-60
2023/03/16 10:34:37;;;;;;;3.35;2.00;;;;;;;11.28;50.01;96700.13;2074883;28;20284;-60
2023/03/16 10:35:50;;;;;;;4.20;2.35;;;;;;;11.80;48.65;96698.56;2075633;28;20205;-60
2023/03/16 10:36:53;;;;;;;5.30;2.20;;;;;;;11.70;49.01;96697.31;2075885;28;20206;-60
2023/03/16 10:37:56;;;;;;;4.72;2.55;;;;;;;11.19;49.47;96708.41;2073322;28;20553;-60
2023/03/16 10:39:01;;;;;;;4.38;2.17;;;;;;;11.12;48.99;96699.13;2088450;28;20220;-60
2023/03/16 10:40:11;;;;;;;3.67;2.00;;;;;;;11.53;48.13;96703.34;2090231;28;20196;-60
2023/03/16 10:41:19;;;;;;;10.98;2.70;;;;;;;11.09;48.54;96691.44;2080931;28;20208;-60
2023/03/16 10:42:21;;;;;;;3.85;2.35;;;;;;;10.65;49.68;96705.59;2075781;28;20751;-60
2023/03/16 10:43:23;;;;;;;4.07;2.00;;;;;;;10.57;48.70;96699.88;2076653;28;20200;-60
2023/03/16 10:44:27;;;;;;;5.07;2.05;;;;;;;10.85;48.87;96686.41;2075049;28;20225;-60
2023/03/16 10:45:30;;;;;;;16.80;2.20;;;;;;;11.39;49.20;96696.19;2076299;28;20209;-60
2023/03/16 10:46:40;;;;;;;4.65;1.70;;;;;;;10.61;48.87;96689.22;2075722;28;20206;-59
2023/03/16 10:47:41;;;;;;;11.75;2.38;;;;;;;10.66;49.39;96688.16;2074983;28;20221;-59
2023/03/16 10:48:51;;;;;;;8.02;2.08;;;;;;;11.25;48.96;96684.59;2077528;28;20288;-60
2023/03/16 10:49:54;;;;;;;4.43;1.70;;;;;;;11.70;48.23;96698.16;2076867;28;20198;-59
2023/03/16 10:50:56;;;;;;;3.55;2.25;;;;;;;11.18;48.09;96696.25;2077401;28;20625;-60
2023/03/16 10:51:59;;;;;;;2.65;2.10;;;;;;;11.40;47.73;96697.84;2076169;28;20289;-60
2023/03/16 10:53:01;;;;;;;12.52;2.17;;;;;;;11.39;47.98;96697.03;2075553;28;20721;-60
2023/03/16 10:54:18;;;;;;;3.85;2.17;;;;;;;12.29;46.33;96694.47;2073203;28;20225;-60
2023/03/16 10:55:23;;;;;;;3.08;1.98;;;;;;;11.84;46.76;96692.25;2076332;28;20502;-59
2023/03/16 10:56:26;;;;;;;5.75;1.67;;;;;;;12.43;45.49;96686.78;2073619;28;20204;-60
2023/03/16 10:57:35;;;;;;;5.55;2.20;;;;;;;12.40;45.82;96695.63;2074432;28;20197;-60
2023/03/16 10:58:41;;;;;;;3.35;2.03;;;;;;;13.11;44.74;96677.94;2075984;28;20202;-60
2023/03/16 10:59:48;;;;;;;3.25;1.77;;;;;;;12.99;44.71;96687.31;2074017;28;20852;-60
2023/03/16 11:00:50;;;;;;;3.83;1.90;;;;;;;11.91;46.16;96690.22;2075820;28;20201;-60
2023/03/16 11:01:53;;;;;;;2.13;1.55;;;;;;;11.91;45.40;96691.03;2074570;28;20201;-60
2023/03/16 11:02:57;;;;;;;8.55;1.90;;;;;;;11.34;46.34;96692.91;2075888;28;20193;-60
2023/03/16 11:03:59;;;;;;;4.13;1.60;;;;;;;11.63;46.14;96694.16;2074751;28;20255;-60
2023/03/16 11:05:32;;;;;;;5.03;1.55;;;;;;;11.86;45.37;96693.03;2071896;28;20208;-60
2023/03/16 11:06:33;;;;;;;8.32;1.85;;;;;;;11.89;45.76;96687.66;2072194;28;20201;-60
2023/03/16 11:07:36;;;;;;;5.95;1.95;;;;;;;11.71;45.63;96691.19;2074435;28;20201;-60
2023/03/16 11:08:38;;;;;;;4.35;1.70;;;;;;;12.28;46.36;96685.78;2074323;28;20232;-60
2023/03/16 11:09:40;;;;;;;4.55;2.00;;;;;;;12.00;46.14;96691.53;2074966;28;20224;-60
2023/03/16 11:10:46;;;;;;;3.90;1.65;;;;;;;12.38;44.88;96678.31;2075407;28;20238;-60
2023/03/16 11:11:56;;;;;;;11.13;1.92;;;;;;;13.37;43.31;96681.78;2074311;28;20205;-60
2023/03/16 11:13:19;;;;;;;3.75;2.13;;;;;;;12.79;44.39;96669.22;2075455;28;20217;-60
2023/03/16 11:14:24;;;;;;;6.28;1.98;;;;;;;12.22;45.00;96683.47;2073296;28;20221;-60
2023/03/16 11:15:35;;;;;;;2.65;1.45;;;;;;;12.56;45.64;96690.44;2075451;28;20591;-60
2023/03/16 11:16:42;;;;;;;4.18;2.35;;;;;;;13.87;43.84;96686.91;2075287;28;20205;-60
2023/03/16 11:17:50;;;;;;;3.03;1.67;;;;;;;13.25;43.02;96687.69;2074335;28;20205;-60
2023/03/16 11:18:57;;;;;;;5.55;1.40;;;;;;;12.47;44.90;96690.91;2089989;28;20306;-60
2023/03/16 11:20:11;;;;;;;6.32;2.50;;;;;;;13.20;43.34;96684.47;2086635;28;20203;-60
2023/03/16 11:21:24;;;;;;;7.90;1.95;;;;;;;13.09;43.38;96682.44;2073811;28;20562;-60
2023/03/16 11:22:28;;;;;;;10.77;1.85;;;;;;;13.42;43.88;96664.94;2074997;28;20186;-61
2023/03/16 11:23:37;;;;;;;6.90;1.85;;;;;;;13.55;42.89;96687.78;2077940;28;20230;-60
2023/03/16 11:24:51;;;;;;;7.50;2.08;;;;;;;12.72;44.67;96684.38;2078265;28;20673;-60
2023/03/16 11:25:57;;;;;;;3.15;1.80;;;;;;;13.56;43.29;96688.66;2077981;28;20200;-61
2023/03/16 11:27:03;;;;;;;4.53;2.25;;;;;;;13.84;43.69;96689.69;2071881;28;20247;-60
2023/03/16 11:28:05;;;;;;;15.85;2.25;;;;;;;13.28;43.72;96684.03;2074045;28;20192;-60
2023/03/16 11:29:17;;;;;;;6.28;1.88;;;;;;;13.71;43.20;96684.28;2072453;28;20692;-60
2023/03/16 11:30:32;;;;;;;7.10;1.73;;;;;;;13.92;41.78;96679.59;2074841;28;20820;-60
2023/03/16 11:31:54;;;;;;;3.17;2.05;;;;;;;13.94;41.53;96669.88;2076510;28;20219;-61
2023/03/16 11:32:59;;;;;;;5.32;3.45;;;;;;;14.07;41.65;96670.00;2071987;28;20200;-60
2023/03/16 11:34:01;;;;;;;4.38;1.80;;;;;;;13.61;42.43;96660.38;2074569;28;20305;-60
2023/03/16 11:35:38;;;;;;;6.95;1.77;;;;;;;13.53;43.18;96665.19;2074377;28;20204;-60
2023/03/16 11:37:03;;;;;;;1.92;1.27;;;;;;;12.52;44.41;96660.09;2075509;28;20204;-60
2023/03/16 11:38:17;;;;;;;3.22;1.30;;;;;;;13.42;43.16;96668.44;2074395;28;20210;-60
2023/03/16 11:39:26;;;;;;;4.95;1.55;;;;;;;12.39;43.75;96659.88;2073275;28;20223;-59
2023/03/16 11:40:40;;;;;;;6.35;1.40;;;;;;;12.41;43.95;96671.09;2074866;28;20197;-60
2023/03/16 11:42:08;;;;;;;7.35;1.83;;;;;;;12.14;44.75;96662.91;2074942;28;20597;-58
2023/03/16 11:43:48;;;;;;;4.50;1.70;;;;;;;13.28;42.81;96655.19;2075709;28;20196;-59
2023/03/16 11:45:11;;;;;;;2.75;1.52;;;;;;;13.22;42.68;96651.97;2073876;28;20750;-59
2023/03/16 11:46:39;;;;;;;3.00;1.73;;;;;;;13.19;42.65;96646.06;2072446;28;20651;-59
2023/03/16 11:48:07;;;;;;;8.27;2.10;;;;;;;13.32;43.50;96640.97;2073983;28;20311;-60
2023/03/16 11:49:37;;;;;;;6.57;1.90;;;;;;;13.28;43.77;96639.47;2074876;28;20906;-59
2023/03/16 11:51:00;;;;;;;3.58;1.35;;;;;;;11.59;44.08;96646.38;2074812;28;20279;-59
2023/03/16 11:52:35;;;;;;;4.28;1.80;;;;;;;11.06;46.74;96639.34;2075516;28;20205;-60
2023/03/16 11:53:54;;;;;;;4.32;2.10;;;;;;;11.08;45.83;96642.72;2072909;28;20225;-59
2023/03/16 11:55:27;;;;;;;5.90;2.25;;;;;;;11.51;45.74;96635.44;2076077;28;20202;-59
2023/03/16 11:56:32;;;;;;;3.28;1.60;;;;;;;11.27;45.86;96632.25;2075877;28;20208;-59
2023/03/16 11:57:36;;;;;;;3.20;1.55;;;;;;;11.17;45.00;96636.22;2074409;28;20204;-59
2023/03/16 11:59:10;;;;;;;4.15;1.85;;;;;;;11.26;45.38;96638.38;2074374;28;20203;-59
2023/03/16 12:00:51;;;;;;;3.88;1.42;;;;;;;11.89;44.39;96634.47;2077397;28;20859;-60
2023/03/16 12:02:08;;;;;;;3.35;1.70;;;;;;;11.80;43.73;96635.78;2077159;28;20633;-60
2023/03/16 12:03:39;;;;;;;3.45;1.60;;;;;;;11.68;43.85;96639.00;2076716;28;20217;-59
2023/03/16 12:04:54;;;;;;;4.75;1.50;;;;;;;11.40;45.24;96635.09;2091227;28;20606;-60
2023/03/16 12:05:58;;;;;;;2.95;1.30;;;;;;;11.99;43.79;96638.34;2088158;28;20207;-60
2023/03/16 12:07:17;;;;;;;3.22;1.50;;;;;;;12.11;43.15;96633.44;2075911;28;20216;-60
2023/03/16 12:08:33;;;;;;;3.50;1.90;;;;;;;11.42;44.83;96628.88;2093889;28;20656;-60
2023/03/16 12:09:57;;;;;;;5.30;1.33;;;;;;;11.34;45.11;96641.50;2088405;28;20219;-60
2023/03/16 12:11:06;;;;;;;2.83;1.75;;;;;;;11.28;44.46;96637.38;2076086;28;20250;-59
2023/03/16 12:12:23;;;;;;;2.80;1.48;;;;;;;11.71;44.64;96633.63;2075841;28;20234;-60
2023/03/16 12:13:37;;;;;;;3.40;1.70;;;;;;;11.37;44.02;96625.66;2076748;28;20714;-59
2023/03/16 12:14:46;;;;;;;4.63;1.38;;;;;;;11.95;43.60;96633.31;2072921;28;20210;-60
2023/03/16 12:15:58;;;;;;;2.92;1.50;;;;;;;12.68;43.47;96641.78;2074046;28;20227;-60
2023/03/16 12:17:08;;;;;;;9.75;2.17;;;;;;;12.66;44.63;96634.94;2073969;28;20710;-60
2023/03/16 12:18:29;;;;;;;3.17;1.75;;;;;;;13.63;42.67;96637.50;2075167;28;20611;-60
2023/03/16 12:20:23;;;;;;;3.92;1.70;;;;;;;12.48;43.73;96635.00;2073998;28;20720;-60
2023/03/16 12:21:39;;;;;;;1.95;1.00;;;;;;;12.09;43.36;96628.28;2079015;28;20846;-60
2023/03/16 12:22:44;;;;;;;4.22;1.60;;;;;;;11.13;45.02;96627.66;2076328;28;20200;-59
2023/03/16 12:23:55;;;;;;;2.63;1.48;;;;;;;10.26;44.85;96626.31;2076280;28;20194;-60
2023/03/16 12:24:57;;;;;;;3.60;1.65;;;;;;;10.44;45.47;96619.47;2076529;28;20267;-59
2023/03/16 12:25:59;;;;;;;3.85;1.65;;;;;;;9.91;46.68;96633.06;2075031;28;20550;-59
2023/03/16 12:27:01;;;;;;;2.20;1.20;;;;;;;9.82;47.01;96629.06;2074832;28;20206;-59
2023/03/16 12:28:14;;;;;;;5.93;1.50;;;;;;;10.03;47.19;96621.25;2077011;28;20197;-59
2023/03/16 12:29:32;;;;;;;2.63;1.65;;;;;;;10.19;46.81;96619.66;2073865;28;20241;-59
2023/03/16 12:30:43;;;;;;;3.60;1.50;;;;;;;10.64;46.55;96616.88;2076463;28;20847;-59